sensor_id;sensor_type;location;lat;lon;timestamp;temperature;humidity
16728;DHT22;8482;54.396;18.590;2023-05-07T00:00:38;7.90;99.90
16728;DHT22;8482;54.396;18.590;2023-05-07T00:03:04;7.90;99.90
16728;DHT22;8482;54.396;18.590;2023-05-07T00:05:30;7.90;99.90
16728;DHT22;8482;54.396;18.590;2023-05-07T00:07:56;7.90;99.90
16728;DHT22;8482;54.396;18.590;2023-05-07T00:10:22;7.90;99.90
16728;DHT22;8482;54.396;18.590;2023-05-07T00:12:48;7.90;99.90
16728;DHT22;8482;54.396;18.590;2023-05-07T00:15:13;7.90;99.90
16728;DHT22;8482;54.396;18.590;2023-05-07T00:17:40;7.90;99.90
16728;DHT22;8482;54.396;18.590;2023-05-07T00:20:06;7.80;99.90
16728;DHT22;8482;54.396;18.590;2023-05-07T00:22:32;7.90;99.90
16728;DHT22;8482;54.396;18.590;2023-05-07T00:24:58;7.90;99.90
16728;DHT22;8482;54.396;18.590;2023-05-07T00:27:24;7.90;99.90
16728;DHT22;8482;54.396;18.590;2023-05-07T00:29:50;7.80;99.90
16728;DHT22;8482;54.396;18.590;2023-05-07T00:32:16;7.90;99.90
16728;DHT22;8482;54.396;18.590;2023-05-07T00:34:43;7.80;99.90
16728;DHT22;8482;54.396;18.590;2023-05-07T00:37:09;7.80;99.90
16728;DHT22;8482;54.396;18.590;2023-05-07T00:39:35;7.80;99.90
16728;DHT22;8482;54.396;18.590;2023-05-07T00:42:01;7.80;99.90
16728;DHT22;8482;54.396;18.590;2023-05-07T00:44:28;7.80;99.90
16728;DHT22;8482;54.396;18.590;2023-05-07T00:46:56;7.80;99.90
16728;DHT22;8482;54.396;18.590;2023-05-07T00:49:26;7.70;99.90
16728;DHT22;8482;54.396;18.590;2023-05-07T00:52:06;7.70;99.90
16728;DHT22;8482;54.396;18.590;2023-05-07T00:54:34;7.70;99.90
16728;DHT22;8482;54.396;18.590;2023-05-07T00:57:02;7.70;99.90
16728;DHT22;8482;54.396;18.590;2023-05-07T00:59:30;7.60;99.90
16728;DHT22;8482;54.396;18.590;2023-05-07T01:01:57;7.60;99.90
16728;DHT22;8482;54.396;18.590;2023-05-07T01:04:24;7.60;99.90
16728;DHT22;8482;54.396;18.590;2023-05-07T01:06:50;7.60;99.90
16728;DHT22;8482;54.396;18.590;2023-05-07T01:09:19;7.50;99.90
16728;DHT22;8482;54.396;18.590;2023-05-07T01:11:47;7.50;99.90
16728;DHT22;8482;54.396;18.590;2023-05-07T01:14:14;7.50;99.90
16728;DHT22;8482;54.396;18.590;2023-05-07T01:16:40;7.50;99.90
16728;DHT22;8482;54.396;18.590;2023-05-07T01:19:08;7.50;99.90
16728;DHT22;8482;54.396;18.590;2023-05-07T01:21:37;7.40;99.90
16728;DHT22;8482;54.396;18.590;2023-05-07T01:24:04;7.40;99.90
16728;DHT22;8482;54.396;18.590;2023-05-07T01:26:31;7.30;99.90
16728;DHT22;8482;54.396;18.590;2023-05-07T01:28:56;7.30;99.90
16728;DHT22;8482;54.396;18.590;2023-05-07T01:31:23;7.30;99.90
16728;DHT22;8482;54.396;18.590;2023-05-07T01:33:51;7.30;99.90
16728;DHT22;8482;54.396;18.590;2023-05-07T01:36:18;7.30;99.90
16728;DHT22;8482;54.396;18.590;2023-05-07T01:38:48;7.20;99.90
16728;DHT22;8482;54.396;18.590;2023-05-07T01:41:14;7.20;99.90
16728;DHT22;8482;54.396;18.590;2023-05-07T01:43:41;7.20;99.90
16728;DHT22;8482;54.396;18.590;2023-05-07T01:46:08;7.20;99.90
16728;DHT22;8482;54.396;18.590;2023-05-07T01:48:35;7.20;99.90
16728;DHT22;8482;54.396;18.590;2023-05-07T01:51:03;7.20;99.90
16728;DHT22;8482;54.396;18.590;2023-05-07T01:53:35;7.10;99.90
16728;DHT22;8482;54.396;18.590;2023-05-07T01:56:02;7.10;99.90
16728;DHT22;8482;54.396;18.590;2023-05-07T01:58:28;7.10;99.90
16728;DHT22;8482;54.396;18.590;2023-05-07T02:00:54;7.10;99.90
16728;DHT22;8482;54.396;18.590;2023-05-07T02:03:19;7.00;99.90
16728;DHT22;8482;54.396;18.590;2023-05-07T02:05:45;7.00;99.90
16728;DHT22;8482;54.396;18.590;2023-05-07T02:08:11;7.00;99.90
16728;DHT22;8482;54.396;18.590;2023-05-07T02:10:37;6.90;99.90
16728;DHT22;8482;54.396;18.590;2023-05-07T02:13:02;6.90;99.90
16728;DHT22;8482;54.396;18.590;2023-05-07T02:15:28;6.90;99.90
16728;DHT22;8482;54.396;18.590;2023-05-07T02:18:02;6.90;99.90
16728;DHT22;8482;54.396;18.590;2023-05-07T02:20:32;6.80;99.90
16728;DHT22;8482;54.396;18.590;2023-05-07T02:22:58;6.80;99.90
16728;DHT22;8482;54.396;18.590;2023-05-07T02:25:24;6.80;99.90
16728;DHT22;8482;54.396;18.590;2023-05-07T02:27:50;6.80;99.90
16728;DHT22;8482;54.396;18.590;2023-05-07T02:30:16;6.70;99.90
16728;DHT22;8482;54.396;18.590;2023-05-07T02:32:42;6.70;99.90
16728;DHT22;8482;54.396;18.590;2023-05-07T02:35:08;6.70;99.90
16728;DHT22;8482;54.396;18.590;2023-05-07T02:37:33;6.70;99.90
16728;DHT22;8482;54.396;18.590;2023-05-07T02:40:00;6.70;99.90
16728;DHT22;8482;54.396;18.590;2023-05-07T02:42:26;6.60;99.90
16728;DHT22;8482;54.396;18.590;2023-05-07T02:44:52;6.60;99.90
16728;DHT22;8482;54.396;18.590;2023-05-07T02:47:17;6.60;99.90
16728;DHT22;8482;54.396;18.590;2023-05-07T02:49:43;6.60;99.90
16728;DHT22;8482;54.396;18.590;2023-05-07T02:52:09;6.60;99.90
16728;DHT22;8482;54.396;18.590;2023-05-07T02:54:35;6.50;99.90
16728;DHT22;8482;54.396;18.590;2023-05-07T02:57:01;6.50;99.90
16728;DHT22;8482;54.396;18.590;2023-05-07T02:59:27;6.50;99.90
16728;DHT22;8482;54.396;18.590;2023-05-07T03:01:53;6.50;99.90
16728;DHT22;8482;54.396;18.590;2023-05-07T03:04:19;6.50;99.90
16728;DHT22;8482;54.396;18.590;2023-05-07T03:06:44;6.50;99.90
16728;DHT22;8482;54.396;18.590;2023-05-07T03:09:10;6.50;99.90
16728;DHT22;8482;54.396;18.590;2023-05-07T03:11:36;6.50;99.90
16728;DHT22;8482;54.396;18.590;2023-05-07T03:14:02;6.50;99.90
16728;DHT22;8482;54.396;18.590;2023-05-07T03:16:28;6.50;99.90
16728;DHT22;8482;54.396;18.590;2023-05-07T03:18:54;6.50;99.90
16728;DHT22;8482;54.396;18.590;2023-05-07T03:21:19;6.50;99.90
16728;DHT22;8482;54.396;18.590;2023-05-07T03:23:45;6.50;99.90
16728;DHT22;8482;54.396;18.590;2023-05-07T03:26:11;6.50;99.90
16728;DHT22;8482;54.396;18.590;2023-05-07T03:28:37;6.50;99.90
16728;DHT22;8482;54.396;18.590;2023-05-07T03:31:03;6.50;99.90
16728;DHT22;8482;54.396;18.590;2023-05-07T03:33:28;6.40;99.90
16728;DHT22;8482;54.396;18.590;2023-05-07T03:35:54;6.40;99.90
16728;DHT22;8482;54.396;18.590;2023-05-07T03:38:20;6.40;99.90
16728;DHT22;8482;54.396;18.590;2023-05-07T03:40:46;6.40;99.90
16728;DHT22;8482;54.396;18.590;2023-05-07T03:43:12;6.40;99.90
16728;DHT22;8482;54.396;18.590;2023-05-07T03:45:37;6.40;99.90
16728;DHT22;8482;54.396;18.590;2023-05-07T03:48:03;6.40;99.90
16728;DHT22;8482;54.396;18.590;2023-05-07T03:50:29;6.40;99.90
16728;DHT22;8482;54.396;18.590;2023-05-07T03:52:55;6.40;99.90
16728;DHT22;8482;54.396;18.590;2023-05-07T03:55:21;6.40;99.90
16728;DHT22;8482;54.396;18.590;2023-05-07T03:57:47;6.50;99.90
16728;DHT22;8482;54.396;18.590;2023-05-07T04:00:13;6.50;99.90
16728;DHT22;8482;54.396;18.590;2023-05-07T04:02:39;6.40;99.90
16728;DHT22;8482;54.396;18.590;2023-05-07T04:05:05;6.50;99.90
16728;DHT22;8482;54.396;18.590;2023-05-07T04:07:31;6.50;99.90
16728;DHT22;8482;54.396;18.590;2023-05-07T04:09:57;6.50;99.90
16728;DHT22;8482;54.396;18.590;2023-05-07T04:12:23;6.50;99.90
16728;DHT22;8482;54.396;18.590;2023-05-07T04:14:49;6.50;99.90
16728;DHT22;8482;54.396;18.590;2023-05-07T04:17:14;6.50;99.90
16728;DHT22;8482;54.396;18.590;2023-05-07T04:19:40;6.50;99.90
16728;DHT22;8482;54.396;18.590;2023-05-07T04:22:11;6.50;99.90
16728;DHT22;8482;54.396;18.590;2023-05-07T04:24:37;6.60;99.90
16728;DHT22;8482;54.396;18.590;2023-05-07T04:27:03;6.60;99.90
16728;DHT22;8482;54.396;18.590;2023-05-07T04:29:29;6.60;99.90
16728;DHT22;8482;54.396;18.590;2023-05-07T04:31:55;6.70;99.90
16728;DHT22;8482;54.396;18.590;2023-05-07T04:34:21;6.70;99.90
16728;DHT22;8482;54.396;18.590;2023-05-07T04:36:47;6.80;99.90
16728;DHT22;8482;54.396;18.590;2023-05-07T04:39:13;6.80;99.90
16728;DHT22;8482;54.396;18.590;2023-05-07T04:41:39;6.90;99.90
16728;DHT22;8482;54.396;18.590;2023-05-07T04:44:05;7.00;99.90
16728;DHT22;8482;54.396;18.590;2023-05-07T04:46:31;7.10;99.90
16728;DHT22;8482;54.396;18.590;2023-05-07T04:48:57;7.10;99.90
16728;DHT22;8482;54.396;18.590;2023-05-07T04:51:22;7.20;99.90
16728;DHT22;8482;54.396;18.590;2023-05-07T04:53:48;7.30;99.90
16728;DHT22;8482;54.396;18.590;2023-05-07T04:56:14;7.30;99.90
16728;DHT22;8482;54.396;18.590;2023-05-07T04:58:40;7.40;99.90
16728;DHT22;8482;54.396;18.590;2023-05-07T05:01:06;7.50;99.90
16728;DHT22;8482;54.396;18.590;2023-05-07T05:03:32;7.60;99.90
16728;DHT22;8482;54.396;18.590;2023-05-07T05:05:57;7.70;99.90
16728;DHT22;8482;54.396;18.590;2023-05-07T05:08:25;7.80;99.90
16728;DHT22;8482;54.396;18.590;2023-05-07T05:10:51;7.90;99.90
16728;DHT22;8482;54.396;18.590;2023-05-07T05:13:17;8.00;99.90
16728;DHT22;8482;54.396;18.590;2023-05-07T05:15:42;8.00;99.90
16728;DHT22;8482;54.396;18.590;2023-05-07T05:18:08;8.10;99.90
16728;DHT22;8482;54.396;18.590;2023-05-07T05:20:34;8.30;99.90
16728;DHT22;8482;54.396;18.590;2023-05-07T05:23:00;8.30;99.90
16728;DHT22;8482;54.396;18.590;2023-05-07T05:25:26;8.40;99.90
16728;DHT22;8482;54.396;18.590;2023-05-07T05:27:52;8.50;99.90
16728;DHT22;8482;54.396;18.590;2023-05-07T05:30:18;8.60;99.90
16728;DHT22;8482;54.396;18.590;2023-05-07T05:32:44;8.60;99.90
16728;DHT22;8482;54.396;18.590;2023-05-07T05:35:10;8.70;99.90
16728;DHT22;8482;54.396;18.590;2023-05-07T05:37:36;8.80;99.90
16728;DHT22;8482;54.396;18.590;2023-05-07T05:40:01;8.80;99.90
16728;DHT22;8482;54.396;18.590;2023-05-07T05:42:27;8.90;99.90
16728;DHT22;8482;54.396;18.590;2023-05-07T05:44:53;9.00;99.90
16728;DHT22;8482;54.396;18.590;2023-05-07T05:47:19;9.10;99.90
16728;DHT22;8482;54.396;18.590;2023-05-07T05:49:45;9.10;99.90
16728;DHT22;8482;54.396;18.590;2023-05-07T05:52:12;9.20;99.90
16728;DHT22;8482;54.396;18.590;2023-05-07T05:54:39;9.30;99.90
16728;DHT22;8482;54.396;18.590;2023-05-07T05:57:05;9.30;99.90
16728;DHT22;8482;54.396;18.590;2023-05-07T05:59:31;9.40;99.90
16728;DHT22;8482;54.396;18.590;2023-05-07T06:01:57;9.50;99.90
16728;DHT22;8482;54.396;18.590;2023-05-07T06:04:23;9.50;99.90
16728;DHT22;8482;54.396;18.590;2023-05-07T06:06:49;9.60;99.90
16728;DHT22;8482;54.396;18.590;2023-05-07T06:09:14;9.70;99.90
16728;DHT22;8482;54.396;18.590;2023-05-07T06:11:40;9.70;99.90
16728;DHT22;8482;54.396;18.590;2023-05-07T06:14:06;9.80;99.90
16728;DHT22;8482;54.396;18.590;2023-05-07T06:16:32;9.80;99.90
16728;DHT22;8482;54.396;18.590;2023-05-07T06:18:58;9.90;99.90
16728;DHT22;8482;54.396;18.590;2023-05-07T06:21:23;10.00;99.90
16728;DHT22;8482;54.396;18.590;2023-05-07T06:23:49;10.10;99.90
16728;DHT22;8482;54.396;18.590;2023-05-07T06:26:17;10.20;99.90
16728;DHT22;8482;54.396;18.590;2023-05-07T06:28:43;10.20;99.90
16728;DHT22;8482;54.396;18.590;2023-05-07T06:31:16;10.30;99.90
16728;DHT22;8482;54.396;18.590;2023-05-07T06:33:46;10.40;99.90
16728;DHT22;8482;54.396;18.590;2023-05-07T06:36:12;10.40;99.90
16728;DHT22;8482;54.396;18.590;2023-05-07T06:38:38;10.50;99.90
16728;DHT22;8482;54.396;18.590;2023-05-07T06:41:05;10.50;99.90
16728;DHT22;8482;54.396;18.590;2023-05-07T06:43:32;10.60;99.90
16728;DHT22;8482;54.396;18.590;2023-05-07T06:45:58;10.60;99.90
16728;DHT22;8482;54.396;18.590;2023-05-07T06:48:24;10.70;99.90
16728;DHT22;8482;54.396;18.590;2023-05-07T06:50:50;10.80;99.90
16728;DHT22;8482;54.396;18.590;2023-05-07T06:53:16;10.80;99.90
16728;DHT22;8482;54.396;18.590;2023-05-07T06:55:42;10.80;99.90
16728;DHT22;8482;54.396;18.590;2023-05-07T06:58:07;10.90;99.90
16728;DHT22;8482;54.396;18.590;2023-05-07T07:00:33;10.90;99.90
16728;DHT22;8482;54.396;18.590;2023-05-07T07:03:00;10.90;99.90
16728;DHT22;8482;54.396;18.590;2023-05-07T07:05:26;11.00;99.90
16728;DHT22;8482;54.396;18.590;2023-05-07T07:07:51;11.00;99.90
16728;DHT22;8482;54.396;18.590;2023-05-07T07:10:21;11.00;99.90
16728;DHT22;8482;54.396;18.590;2023-05-07T07:12:48;11.00;99.90
16728;DHT22;8482;54.396;18.590;2023-05-07T07:15:15;11.10;99.90
16728;DHT22;8482;54.396;18.590;2023-05-07T07:17:41;11.10;99.90
16728;DHT22;8482;54.396;18.590;2023-05-07T07:20:07;11.10;99.90
16728;DHT22;8482;54.396;18.590;2023-05-07T07:22:33;11.20;99.90
16728;DHT22;8482;54.396;18.590;2023-05-07T07:24:59;11.20;99.90
16728;DHT22;8482;54.396;18.590;2023-05-07T07:27:25;11.20;99.90
16728;DHT22;8482;54.396;18.590;2023-05-07T07:29:51;11.20;99.90
16728;DHT22;8482;54.396;18.590;2023-05-07T07:32:17;11.30;99.90
16728;DHT22;8482;54.396;18.590;2023-05-07T07:34:43;11.30;99.90
16728;DHT22;8482;54.396;18.590;2023-05-07T07:37:08;11.30;99.90
16728;DHT22;8482;54.396;18.590;2023-05-07T07:39:34;11.30;99.90
16728;DHT22;8482;54.396;18.590;2023-05-07T07:42:03;11.40;99.90
16728;DHT22;8482;54.396;18.590;2023-05-07T07:44:29;11.40;99.90
16728;DHT22;8482;54.396;18.590;2023-05-07T07:46:55;11.40;99.90
16728;DHT22;8482;54.396;18.590;2023-05-07T07:49:20;11.50;99.90
16728;DHT22;8482;54.396;18.590;2023-05-07T07:51:46;11.60;99.90
16728;DHT22;8482;54.396;18.590;2023-05-07T07:54:12;11.60;99.90
16728;DHT22;8482;54.396;18.590;2023-05-07T07:56:38;11.70;99.90
16728;DHT22;8482;54.396;18.590;2023-05-07T07:59:04;11.80;99.90
16728;DHT22;8482;54.396;18.590;2023-05-07T08:01:30;11.80;99.90
16728;DHT22;8482;54.396;18.590;2023-05-07T08:03:56;11.90;99.90
16728;DHT22;8482;54.396;18.590;2023-05-07T08:06:25;12.00;99.90
16728;DHT22;8482;54.396;18.590;2023-05-07T08:08:51;12.00;99.60
16728;DHT22;8482;54.396;18.590;2023-05-07T08:11:17;12.10;99.40
16728;DHT22;8482;54.396;18.590;2023-05-07T08:13:43;12.20;99.10
16728;DHT22;8482;54.396;18.590;2023-05-07T08:16:10;12.20;98.80
16728;DHT22;8482;54.396;18.590;2023-05-07T08:18:36;12.30;98.50
16728;DHT22;8482;54.396;18.590;2023-05-07T08:21:02;12.30;98.20
16728;DHT22;8482;54.396;18.590;2023-05-07T08:23:28;12.40;98.10
16728;DHT22;8482;54.396;18.590;2023-05-07T08:25:54;12.40;98.10
16728;DHT22;8482;54.396;18.590;2023-05-07T08:28:20;12.40;98.00
16728;DHT22;8482;54.396;18.590;2023-05-07T08:30:47;12.50;97.80
16728;DHT22;8482;54.396;18.590;2023-05-07T08:33:13;12.50;96.80
16728;DHT22;8482;54.396;18.590;2023-05-07T08:35:39;12.50;96.70
16728;DHT22;8482;54.396;18.590;2023-05-07T08:38:05;12.50;95.90
16728;DHT22;8482;54.396;18.590;2023-05-07T08:40:37;12.50;95.80
16728;DHT22;8482;54.396;18.590;2023-05-07T08:43:05;12.50;96.20
16728;DHT22;8482;54.396;18.590;2023-05-07T08:45:33;12.60;96.00
16728;DHT22;8482;54.396;18.590;2023-05-07T08:48:02;12.60;95.90
16728;DHT22;8482;54.396;18.590;2023-05-07T08:50:30;12.60;95.80
16728;DHT22;8482;54.396;18.590;2023-05-07T08:52:56;12.60;95.70
16728;DHT22;8482;54.396;18.590;2023-05-07T08:55:24;12.70;95.40
16728;DHT22;8482;54.396;18.590;2023-05-07T08:57:50;12.70;94.40
16728;DHT22;8482;54.396;18.590;2023-05-07T09:00:18;12.70;94.10
16728;DHT22;8482;54.396;18.590;2023-05-07T09:02:43;12.80;93.80
16728;DHT22;8482;54.396;18.590;2023-05-07T09:05:09;12.80;93.70
16728;DHT22;8482;54.396;18.590;2023-05-07T09:07:35;12.80;93.70
16728;DHT22;8482;54.396;18.590;2023-05-07T09:10:03;12.90;93.40
16728;DHT22;8482;54.396;18.590;2023-05-07T09:12:30;12.90;93.70
16728;DHT22;8482;54.396;18.590;2023-05-07T09:14:56;12.90;93.40
16728;DHT22;8482;54.396;18.590;2023-05-07T09:17:22;12.90;93.30
16728;DHT22;8482;54.396;18.590;2023-05-07T09:19:48;13.00;93.50
16728;DHT22;8482;54.396;18.590;2023-05-07T09:22:14;13.00;93.40
16728;DHT22;8482;54.396;18.590;2023-05-07T09:24:40;13.00;93.30
16728;DHT22;8482;54.396;18.590;2023-05-07T09:27:07;13.00;93.20
16728;DHT22;8482;54.396;18.590;2023-05-07T09:29:35;13.10;93.70
16728;DHT22;8482;54.396;18.590;2023-05-07T09:32:05;13.10;93.80
16728;DHT22;8482;54.396;18.590;2023-05-07T09:34:33;13.10;93.80
16728;DHT22;8482;54.396;18.590;2023-05-07T09:37:04;13.20;94.20
16728;DHT22;8482;54.396;18.590;2023-05-07T09:39:45;13.20;94.20
16728;DHT22;8482;54.396;18.590;2023-05-07T09:42:12;13.40;94.30
16728;DHT22;8482;54.396;18.590;2023-05-07T09:44:40;13.40;94.00
16728;DHT22;8482;54.396;18.590;2023-05-07T09:47:07;13.40;93.10
16728;DHT22;8482;54.396;18.590;2023-05-07T09:49:39;13.50;93.20
16728;DHT22;8482;54.396;18.590;2023-05-07T09:52:06;13.60;92.80
16728;DHT22;8482;54.396;18.590;2023-05-07T09:54:35;13.60;92.30
16728;DHT22;8482;54.396;18.590;2023-05-07T09:57:04;13.70;91.60
16728;DHT22;8482;54.396;18.590;2023-05-07T09:59:32;13.70;90.30
16728;DHT22;8482;54.396;18.590;2023-05-07T10:02:01;13.70;89.60
16728;DHT22;8482;54.396;18.590;2023-05-07T10:04:29;13.80;89.40
16728;DHT22;8482;54.396;18.590;2023-05-07T10:06:56;13.90;90.00
16728;DHT22;8482;54.396;18.590;2023-05-07T10:09:25;13.90;89.30
16728;DHT22;8482;54.396;18.590;2023-05-07T10:11:52;14.00;88.90
16728;DHT22;8482;54.396;18.590;2023-05-07T10:14:22;14.00;89.00
16728;DHT22;8482;54.396;18.590;2023-05-07T10:16:49;14.00;89.60
16728;DHT22;8482;54.396;18.590;2023-05-07T10:19:15;14.00;90.30
16728;DHT22;8482;54.396;18.590;2023-05-07T10:21:57;14.10;90.70
16728;DHT22;8482;54.396;18.590;2023-05-07T10:24:32;14.10;90.70
16728;DHT22;8482;54.396;18.590;2023-05-07T10:27:07;14.10;90.30
16728;DHT22;8482;54.396;18.590;2023-05-07T10:35:18;14.30;91.10
16728;DHT22;8482;54.396;18.590;2023-05-07T10:37:47;14.40;91.10
16728;DHT22;8482;54.396;18.590;2023-05-07T10:40:14;14.50;91.20
16728;DHT22;8482;54.396;18.590;2023-05-07T10:43:03;14.50;91.30
16728;DHT22;8482;54.396;18.590;2023-05-07T10:45:31;14.60;91.70
16728;DHT22;8482;54.396;18.590;2023-05-07T10:48:11;14.70;92.00
16728;DHT22;8482;54.396;18.590;2023-05-07T10:50:42;14.80;92.50
16728;DHT22;8482;54.396;18.590;2023-05-07T10:55:49;14.90;92.90
16728;DHT22;8482;54.396;18.590;2023-05-07T10:58:35;15.00;93.00
16728;DHT22;8482;54.396;18.590;2023-05-07T11:01:03;15.00;92.90
16728;DHT22;8482;54.396;18.590;2023-05-07T11:03:29;15.10;92.70
16728;DHT22;8482;54.396;18.590;2023-05-07T11:06:15;15.10;92.40
16728;DHT22;8482;54.396;18.590;2023-05-07T11:08:57;15.20;92.00
16728;DHT22;8482;54.396;18.590;2023-05-07T11:11:49;15.30;91.80
16728;DHT22;8482;54.396;18.590;2023-05-07T11:17:06;15.40;91.60
16728;DHT22;8482;54.396;18.590;2023-05-07T11:19:53;15.50;91.90
16728;DHT22;8482;54.396;18.590;2023-05-07T11:25:05;15.70;92.00
16728;DHT22;8482;54.396;18.590;2023-05-07T11:27:32;15.70;92.30
16728;DHT22;8482;54.396;18.590;2023-05-07T11:29:59;15.80;92.20
16728;DHT22;8482;54.396;18.590;2023-05-07T11:32:31;15.90;92.20
16728;DHT22;8482;54.396;18.590;2023-05-07T11:34:59;15.90;92.50
16728;DHT22;8482;54.396;18.590;2023-05-07T11:37:27;16.00;92.00
16728;DHT22;8482;54.396;18.590;2023-05-07T11:40:06;15.90;91.50
16728;DHT22;8482;54.396;18.590;2023-05-07T11:42:34;15.80;91.50
16728;DHT22;8482;54.396;18.590;2023-05-07T11:45:03;15.80;91.60
16728;DHT22;8482;54.396;18.590;2023-05-07T11:47:31;15.80;91.40
16728;DHT22;8482;54.396;18.590;2023-05-07T11:50:06;15.80;90.60
16728;DHT22;8482;54.396;18.590;2023-05-07T11:52:33;15.80;90.70
16728;DHT22;8482;54.396;18.590;2023-05-07T11:55:01;15.90;90.80
16728;DHT22;8482;54.396;18.590;2023-05-07T11:57:29;15.90;90.60
16728;DHT22;8482;54.396;18.590;2023-05-07T11:59:59;16.00;90.40
16728;DHT22;8482;54.396;18.590;2023-05-07T12:02:27;16.10;88.60
16728;DHT22;8482;54.396;18.590;2023-05-07T12:04:54;16.10;87.00
16728;DHT22;8482;54.396;18.590;2023-05-07T12:07:20;16.20;85.80
16728;DHT22;8482;54.396;18.590;2023-05-07T12:09:47;16.30;85.00
16728;DHT22;8482;54.396;18.590;2023-05-07T12:12:14;16.50;85.00
16728;DHT22;8482;54.396;18.590;2023-05-07T12:14:45;16.60;83.90
16728;DHT22;8482;54.396;18.590;2023-05-07T12:17:13;16.70;82.60
16728;DHT22;8482;54.396;18.590;2023-05-07T12:19:42;16.80;82.00
16728;DHT22;8482;54.396;18.590;2023-05-07T12:22:10;17.00;82.20
16728;DHT22;8482;54.396;18.590;2023-05-07T12:25:10;17.10;82.60
16728;DHT22;8482;54.396;18.590;2023-05-07T12:27:37;17.20;80.60
16728;DHT22;8482;54.396;18.590;2023-05-07T12:30:04;17.20;79.90
16728;DHT22;8482;54.396;18.590;2023-05-07T12:32:31;17.20;79.70
16728;DHT22;8482;54.396;18.590;2023-05-07T12:35:01;17.30;79.60
16728;DHT22;8482;54.396;18.590;2023-05-07T12:37:27;17.40;80.20
16728;DHT22;8482;54.396;18.590;2023-05-07T12:40:09;17.50;79.80
16728;DHT22;8482;54.396;18.590;2023-05-07T12:42:37;17.60;80.30
16728;DHT22;8482;54.396;18.590;2023-05-07T12:45:13;17.70;79.20
16728;DHT22;8482;54.396;18.590;2023-05-07T12:47:47;17.70;78.50
16728;DHT22;8482;54.396;18.590;2023-05-07T12:50:16;17.90;78.80
16728;DHT22;8482;54.396;18.590;2023-05-07T12:52:43;17.90;78.70
16728;DHT22;8482;54.396;18.590;2023-05-07T12:55:13;18.10;77.90
16728;DHT22;8482;54.396;18.590;2023-05-07T12:57:43;18.20;75.20
16728;DHT22;8482;54.396;18.590;2023-05-07T13:00:14;18.30;74.60
16728;DHT22;8482;54.396;18.590;2023-05-07T13:02:42;18.50;74.40
16728;DHT22;8482;54.396;18.590;2023-05-07T13:05:12;18.60;73.50
16728;DHT22;8482;54.396;18.590;2023-05-07T13:07:39;18.60;73.10
16728;DHT22;8482;54.396;18.590;2023-05-07T13:10:06;18.70;71.70
16728;DHT22;8482;54.396;18.590;2023-05-07T13:12:32;18.80;71.90
16728;DHT22;8482;54.396;18.590;2023-05-07T13:14:58;18.90;72.20
16728;DHT22;8482;54.396;18.590;2023-05-07T13:17:24;19.00;69.80
16728;DHT22;8482;54.396;18.590;2023-05-07T13:19:50;19.00;69.50
16728;DHT22;8482;54.396;18.590;2023-05-07T13:22:16;19.10;68.60
16728;DHT22;8482;54.396;18.590;2023-05-07T13:24:41;19.20;67.90
16728;DHT22;8482;54.396;18.590;2023-05-07T13:27:09;19.30;67.70
16728;DHT22;8482;54.396;18.590;2023-05-07T13:29:34;19.40;66.80
16728;DHT22;8482;54.396;18.590;2023-05-07T13:32:00;19.50;66.50
16728;DHT22;8482;54.396;18.590;2023-05-07T13:34:27;19.60;65.40
16728;DHT22;8482;54.396;18.590;2023-05-07T13:36:53;19.70;65.20
16728;DHT22;8482;54.396;18.590;2023-05-07T13:39:19;19.80;64.50
16728;DHT22;8482;54.396;18.590;2023-05-07T13:41:45;19.90;64.60
16728;DHT22;8482;54.396;18.590;2023-05-07T13:44:11;20.00;64.70
16728;DHT22;8482;54.396;18.590;2023-05-07T13:46:36;20.00;64.00
16728;DHT22;8482;54.396;18.590;2023-05-07T13:49:02;20.10;62.20
16728;DHT22;8482;54.396;18.590;2023-05-07T13:51:28;20.10;61.40
16728;DHT22;8482;54.396;18.590;2023-05-07T13:53:54;20.10;61.20
16728;DHT22;8482;54.396;18.590;2023-05-07T13:56:20;20.20;61.50
16728;DHT22;8482;54.396;18.590;2023-05-07T13:58:46;20.20;60.30
16728;DHT22;8482;54.396;18.590;2023-05-07T14:01:12;20.20;60.00
16728;DHT22;8482;54.396;18.590;2023-05-07T14:03:38;20.20;59.30
16728;DHT22;8482;54.396;18.590;2023-05-07T14:06:05;20.20;59.20
16728;DHT22;8482;54.396;18.590;2023-05-07T14:08:31;20.20;58.50
16728;DHT22;8482;54.396;18.590;2023-05-07T14:10:56;20.30;58.10
16728;DHT22;8482;54.396;18.590;2023-05-07T14:13:22;20.40;57.70
16728;DHT22;8482;54.396;18.590;2023-05-07T14:15:48;20.40;57.30
16728;DHT22;8482;54.396;18.590;2023-05-07T14:18:17;20.40;57.60
16728;DHT22;8482;54.396;18.590;2023-05-07T14:20:43;20.40;56.70
16728;DHT22;8482;54.396;18.590;2023-05-07T14:23:11;20.40;57.40
16728;DHT22;8482;54.396;18.590;2023-05-07T14:25:37;20.40;57.30
16728;DHT22;8482;54.396;18.590;2023-05-07T14:28:03;20.40;57.10
16728;DHT22;8482;54.396;18.590;2023-05-07T14:30:29;20.50;56.90
16728;DHT22;8482;54.396;18.590;2023-05-07T14:32:55;20.60;56.40
16728;DHT22;8482;54.396;18.590;2023-05-07T14:35:20;20.70;55.70
16728;DHT22;8482;54.396;18.590;2023-05-07T14:37:46;20.70;55.50
16728;DHT22;8482;54.396;18.590;2023-05-07T14:40:12;20.80;55.60
16728;DHT22;8482;54.396;18.590;2023-05-07T14:42:40;21.00;55.50
16728;DHT22;8482;54.396;18.590;2023-05-07T14:45:06;21.10;55.00
16728;DHT22;8482;54.396;18.590;2023-05-07T14:47:32;21.30;54.90
16728;DHT22;8482;54.396;18.590;2023-05-07T14:49:58;21.40;54.30
16728;DHT22;8482;54.396;18.590;2023-05-07T14:52:26;21.50;54.00
16728;DHT22;8482;54.396;18.590;2023-05-07T14:54:52;21.50;54.00
16728;DHT22;8482;54.396;18.590;2023-05-07T14:57:18;21.60;53.60
16728;DHT22;8482;54.396;18.590;2023-05-07T14:59:45;21.60;53.40
16728;DHT22;8482;54.396;18.590;2023-05-07T15:02:12;21.60;54.10
16728;DHT22;8482;54.396;18.590;2023-05-07T15:04:38;21.60;53.50
16728;DHT22;8482;54.396;18.590;2023-05-07T15:07:11;21.70;53.90
16728;DHT22;8482;54.396;18.590;2023-05-07T15:09:41;21.70;52.70
16728;DHT22;8482;54.396;18.590;2023-05-07T15:12:07;21.80;53.40
16728;DHT22;8482;54.396;18.590;2023-05-07T15:14:35;21.90;53.10
16728;DHT22;8482;54.396;18.590;2023-05-07T15:17:01;21.90;53.50
16728;DHT22;8482;54.396;18.590;2023-05-07T15:19:26;21.90;54.00
16728;DHT22;8482;54.396;18.590;2023-05-07T15:21:58;21.80;54.20
16728;DHT22;8482;54.396;18.590;2023-05-07T15:24:28;21.80;53.90
16728;DHT22;8482;54.396;18.590;2023-05-07T15:26:57;21.80;54.40
16728;DHT22;8482;54.396;18.590;2023-05-07T15:29:23;21.70;54.10
16728;DHT22;8482;54.396;18.590;2023-05-07T15:31:50;21.60;55.00
16728;DHT22;8482;54.396;18.590;2023-05-07T15:34:17;21.50;54.30
16728;DHT22;8482;54.396;18.590;2023-05-07T15:36:43;21.30;54.80
16728;DHT22;8482;54.396;18.590;2023-05-07T15:39:09;21.20;54.90
16728;DHT22;8482;54.396;18.590;2023-05-07T15:41:35;21.20;54.20
16728;DHT22;8482;54.396;18.590;2023-05-07T15:44:02;21.20;54.70
16728;DHT22;8482;54.396;18.590;2023-05-07T15:46:28;21.10;54.50
16728;DHT22;8482;54.396;18.590;2023-05-07T15:48:54;21.00;54.80
16728;DHT22;8482;54.396;18.590;2023-05-07T15:51:21;20.90;55.00